createdAt,value
2018-12-25T00:02:21.395Z,9.68
2018-12-25T00:05:01.240Z,18.52
2018-12-25T00:07:41.545Z,9.68
2018-12-25T00:10:21.414Z,12.37
2018-12-25T00:13:01.758Z,12.65
2018-12-25T00:15:41.981Z,14.53
2018-12-25T00:18:22.334Z,11.03
2018-12-25T00:21:02.059Z,13.58
2018-12-25T00:23:42.038Z,14.87
2018-12-25T00:26:21.925Z,12.85
2018-12-25T00:29:02.019Z,13.98
2018-12-25T00:31:41.924Z,12.75
2018-12-25T00:34:22.049Z,14.00
2018-12-25T00:37:02.328Z,17.00
2018-12-25T00:39:42.322Z,15.18
2018-12-25T00:42:21.980Z,14.07
2018-12-25T00:45:02.448Z,16.55
2018-12-25T00:47:40.962Z,13.50
2018-12-25T00:50:27.973Z,12.03
2018-12-25T00:53:08.377Z,9.63
2018-12-25T00:55:48.284Z,11.68
2018-12-25T00:58:28.020Z,8.03
2018-12-25T01:01:08.576Z,11.33
2018-12-25T01:03:48.532Z,11.03
2018-12-25T01:06:28.492Z,10.35
2018-12-25T01:09:08.315Z,13.98
2018-12-25T01:11:48.108Z,15.58
2018-12-25T01:14:28.432Z,8.15
2018-12-25T01:17:08.458Z,8.00
2018-12-25T01:19:48.825Z,8.45
2018-12-25T01:22:28.604Z,12.78
2018-12-25T01:25:08.754Z,6.78
2018-12-25T01:27:48.847Z,7.62
2018-12-25T01:30:28.658Z,6.67
2018-12-25T01:33:08.541Z,5.70
2018-12-25T01:35:48.692Z,7.40
2018-12-25T01:38:28.601Z,6.15
2018-12-25T01:41:08.577Z,6.08
2018-12-25T01:43:49.072Z,5.80
2018-12-25T01:46:28.805Z,6.40
2018-12-25T01:49:08.892Z,6.80
2018-12-25T01:51:48.767Z,8.00
2018-12-25T01:54:28.892Z,6.90
2018-12-25T01:57:08.687Z,7.20
2018-12-25T01:59:48.756Z,7.65
2018-12-25T02:02:29.256Z,7.20
2018-12-25T02:05:09.276Z,5.42
2018-12-25T02:07:49.292Z,7.75
2018-12-25T02:10:29.017Z,6.37
2018-12-25T02:13:09.252Z,5.60
2018-12-25T02:15:48.985Z,7.20
2018-12-25T02:18:29.004Z,5.72
2018-12-25T02:21:09.496Z,6.00
2018-12-25T02:23:49.295Z,7.60
2018-12-25T02:26:29.585Z,6.80
2018-12-25T02:29:09.671Z,6.72
2018-12-25T02:31:37.390Z,5.90
2018-12-25T02:34:17.701Z,6.05
2018-12-25T02:36:57.431Z,5.67
2018-12-25T02:39:37.400Z,6.05
2018-12-25T02:42:17.695Z,5.90
2018-12-25T02:44:57.860Z,5.75
2018-12-25T02:47:37.704Z,4.97
2018-12-25T02:50:17.926Z,4.97
2018-12-25T02:52:45.749Z,6.75
2018-12-25T02:55:32.987Z,5.83
2018-12-25T02:58:13.956Z,6.25
2018-12-25T03:00:53.885Z,6.20
2018-12-25T03:03:33.976Z,7.60
2018-12-25T03:06:15.177Z,7.33
2018-12-25T03:08:55.322Z,7.15
2018-12-25T03:11:35.520Z,6.70
2018-12-25T03:14:15.692Z,9.28
2018-12-25T03:16:55.954Z,7.67
2018-12-25T03:19:35.921Z,7.00
2018-12-25T03:22:15.987Z,10.25
2018-12-25T03:24:56.242Z,7.90
2018-12-25T03:27:36.333Z,8.70
2018-12-25T03:30:16.154Z,7.70
2018-12-25T03:32:56.605Z,7.47
2018-12-25T03:35:36.425Z,6.78
2018-12-25T03:38:16.744Z,5.75
2018-12-25T03:40:56.481Z,5.55
2018-12-25T03:43:36.869Z,5.53
2018-12-25T03:46:16.510Z,5.35
2018-12-25T03:48:57.056Z,6.55
2018-12-25T03:51:37.448Z,5.55
2018-12-25T03:54:17.380Z,5.15
2018-12-25T03:56:56.948Z,7.10
2018-12-25T03:59:37.045Z,6.08
2018-12-25T04:02:17.445Z,6.35
2018-12-25T04:04:57.332Z,5.87
2018-12-25T04:07:37.603Z,4.62
2018-12-25T04:10:17.913Z,5.90
2018-12-25T04:12:57.763Z,5.03
2018-12-25T04:15:38.008Z,5.37
2018-12-25T04:18:17.984Z,5.70
2018-12-25T04:20:58.052Z,6.00
2018-12-25T04:23:37.997Z,4.78
2018-12-25T04:26:18.372Z,4.92
2018-12-25T04:28:58.348Z,5.20
2018-12-25T04:31:38.221Z,5.15
2018-12-25T04:34:18.632Z,6.47
2018-12-25T04:36:58.667Z,6.28
2018-12-25T04:39:38.358Z,6.67
2018-12-25T04:42:18.195Z,6.30
2018-12-25T04:44:58.171Z,6.65
2018-12-25T04:47:38.678Z,10.90
2018-12-25T04:50:18.712Z,6.70
2018-12-25T04:52:58.571Z,6.95
2018-12-25T04:55:38.634Z,10.13
2018-12-25T04:58:18.987Z,8.15
2018-12-25T05:00:58.698Z,8.68
2018-12-25T05:03:38.510Z,7.70
2018-12-25T05:06:18.867Z,7.30
2018-12-25T05:08:59.017Z,8.05
2018-12-25T05:11:39.120Z,9.35
2018-12-25T05:14:18.968Z,7.17
2018-12-25T05:16:59.026Z,7.50
2018-12-25T05:19:39.178Z,7.87
2018-12-25T05:22:19.037Z,6.30
2018-12-25T05:24:59.210Z,6.62
2018-12-25T05:27:39.535Z,6.92
2018-12-25T05:30:19.491Z,6.40
2018-12-25T05:32:59.859Z,6.40
2018-12-25T05:35:40.059Z,11.33
2018-12-25T05:38:20.229Z,10.38
2018-12-25T05:40:59.989Z,6.85
2018-12-25T05:43:39.896Z,11.38
2018-12-25T05:46:20.167Z,6.10
2018-12-25T05:49:00.436Z,7.53
2018-12-25T05:51:40.336Z,7.00
2018-12-25T05:54:20.452Z,7.28
2018-12-25T05:57:00.573Z,7.40
2018-12-25T05:59:40.322Z,8.08
2018-12-25T06:02:20.843Z,9.78
2018-12-25T06:05:00.951Z,13.80
2018-12-25T06:07:41.341Z,11.73
2018-12-25T06:10:21.364Z,15.20
2018-12-25T06:13:01.362Z,14.47
2018-12-25T06:15:41.109Z,16.02
2018-12-25T06:18:21.146Z,12.43
2018-12-25T06:21:01.356Z,16.15
2018-12-25T06:23:41.634Z,17.00
2018-12-25T06:26:22.101Z,16.10
2018-12-25T06:29:02.019Z,15.80
2018-12-25T06:31:41.976Z,18.27
2018-12-25T06:34:22.034Z,17.92
2018-12-25T06:37:02.152Z,17.67
2018-12-25T06:39:42.267Z,24.30
2018-12-25T06:42:22.563Z,16.40
2018-12-25T06:45:02.577Z,20.88
2018-12-25T06:47:42.698Z,21.57
2018-12-25T06:50:22.550Z,21.85
2018-12-25T06:53:02.732Z,21.70
2018-12-25T06:55:42.886Z,25.17
2018-12-25T06:58:23.097Z,23.77
2018-12-25T07:01:02.810Z,28.32
2018-12-25T07:03:42.746Z,20.72
2018-12-25T07:06:22.724Z,19.65
2018-12-25T07:09:03.640Z,19.12
2018-12-25T07:11:44.304Z,21.37
2018-12-25T07:14:24.102Z,18.57
2018-12-25T07:17:03.874Z,18.82
2018-12-25T07:19:44.409Z,17.32
2018-12-25T07:22:25.625Z,13.53
2018-12-25T07:25:05.262Z,14.70
2018-12-25T07:27:45.442Z,17.98
2018-12-25T07:30:25.463Z,14.93
2018-12-25T07:33:05.823Z,15.25
2018-12-25T07:35:46.112Z,20.10
2018-12-25T07:38:26.384Z,18.12
2018-12-25T07:41:06.124Z,17.45
2018-12-25T07:43:46.449Z,18.90
2018-12-25T07:46:26.425Z,16.65
2018-12-25T07:49:06.179Z,18.62
2018-12-25T07:51:46.158Z,23.30
2018-12-25T07:54:26.392Z,20.02
2018-12-25T07:57:06.457Z,16.52
2018-12-25T07:59:46.107Z,16.45
2018-12-25T08:02:26.533Z,16.70
2018-12-25T08:05:06.347Z,15.63
2018-12-25T08:07:46.149Z,17.42
2018-12-25T08:10:26.567Z,14.90
2018-12-25T08:13:06.554Z,14.35
2018-12-25T08:15:46.248Z,15.48
2018-12-25T08:18:26.532Z,17.37
2018-12-25T08:21:06.401Z,17.45
2018-12-25T08:23:46.695Z,16.87
2018-12-25T08:26:26.640Z,17.52
2018-12-25T08:29:06.676Z,17.35
2018-12-25T08:31:46.662Z,13.62
2018-12-25T08:34:26.564Z,17.20
2018-12-25T08:37:06.734Z,16.32
2018-12-25T08:39:46.942Z,16.32
2018-12-25T08:42:26.628Z,14.23
2018-12-25T08:45:07.036Z,16.12
2018-12-25T08:47:46.765Z,14.63
2018-12-25T08:50:26.818Z,15.03
2018-12-25T08:53:06.928Z,13.43
2018-12-25T08:55:47.371Z,12.23
2018-12-25T08:58:27.602Z,14.55
2018-12-25T09:01:07.480Z,14.07
2018-12-25T09:03:47.620Z,15.85
2018-12-25T09:06:27.570Z,18.07
2018-12-25T09:09:07.511Z,13.95
2018-12-25T09:11:49.037Z,13.22
2018-12-25T09:14:29.488Z,14.90
2018-12-25T09:17:09.756Z,14.05
2018-12-25T09:19:49.900Z,12.23
2018-12-25T09:22:29.807Z,25.90
2018-12-25T09:25:10.797Z,15.13
2018-12-25T09:27:51.308Z,14.43
2018-12-25T09:30:31.009Z,17.02
2018-12-25T09:33:11.016Z,14.85
2018-12-25T09:35:51.146Z,25.37
2018-12-25T09:38:31.237Z,11.97
2018-12-25T09:41:11.292Z,13.60
2018-12-25T09:43:51.426Z,13.28
2018-12-25T09:46:31.586Z,8.73
2018-12-25T09:49:11.855Z,12.90
2018-12-25T09:51:54.592Z,15.95
2018-12-25T09:54:33.474Z,22.80
2018-12-25T09:57:13.781Z,15.90
2018-12-25T09:59:53.702Z,12.45
2018-12-25T10:02:33.368Z,18.15
2018-12-25T10:05:13.584Z,15.78
2018-12-25T10:07:55.085Z,16.67
2018-12-25T10:10:34.744Z,18.27
2018-12-25T10:13:15.196Z,17.60
2018-12-25T10:15:55.439Z,15.98
2018-12-25T10:18:36.225Z,24.67
2018-12-25T10:21:16.335Z,18.90
2018-12-25T10:23:56.933Z,22.87
2018-12-25T10:26:36.766Z,20.05
2018-12-25T10:29:16.798Z,26.85
2018-12-25T10:31:56.936Z,18.17
2018-12-25T10:34:36.980Z,18.42
2018-12-25T10:37:16.781Z,17.98
2018-12-25T10:39:57.060Z,18.70
2018-12-25T10:42:37.407Z,17.48
2018-12-25T10:45:17.207Z,17.32
2018-12-25T10:47:57.280Z,20.37
2018-12-25T10:50:37.490Z,20.37
2018-12-25T10:53:17.154Z,20.12
2018-12-25T10:55:57.400Z,22.67
2018-12-25T10:58:37.701Z,17.05
2018-12-25T11:01:17.750Z,20.10
2018-12-25T11:03:57.852Z,22.82
2018-12-25T11:06:38.092Z,19.20
2018-12-25T11:09:18.063Z,22.10
2018-12-25T11:11:58.095Z,20.27
2018-12-25T11:14:38.524Z,20.90
2018-12-25T11:17:18.548Z,18.27
2018-12-25T11:19:58.672Z,21.85
2018-12-25T11:22:38.786Z,17.40
2018-12-25T11:25:18.995Z,15.58
2018-12-25T11:27:59.422Z,15.63
2018-12-25T11:30:39.608Z,13.28
2018-12-25T11:33:19.845Z,17.32
2018-12-25T11:36:00.338Z,17.62
2018-12-25T11:38:40.200Z,15.95
2018-12-25T11:41:20.052Z,23.52
2018-12-25T11:44:00.064Z,21.05
2018-12-25T11:46:39.853Z,22.82
2018-12-25T11:49:20.058Z,22.85
2018-12-25T11:52:00.350Z,20.80
2018-12-25T11:54:39.888Z,21.90
2018-12-25T11:57:20.122Z,15.50
2018-12-25T12:00:00.089Z,18.12
2018-12-25T12:02:41.158Z,18.37
2018-12-25T12:05:21.139Z,16.95
2018-12-25T12:08:01.235Z,19.80
2018-12-25T12:10:40.870Z,23.25
2018-12-25T12:13:20.848Z,21.20
2018-12-25T12:16:01.083Z,20.10
2018-12-25T12:18:41.708Z,20.82
2018-12-25T12:21:21.596Z,21.93
2018-12-25T12:24:01.594Z,20.70
2018-12-25T12:26:41.835Z,21.12
2018-12-25T12:29:21.982Z,21.97
2018-12-25T12:32:01.818Z,22.42
2018-12-25T12:34:42.519Z,16.62
2018-12-25T12:37:23.089Z,22.37
2018-12-25T12:40:02.950Z,28.60
2018-12-25T12:42:44.239Z,22.25
2018-12-25T12:45:23.992Z,23.20
2018-12-25T12:48:04.076Z,19.77
2018-12-25T12:50:44.170Z,21.42
2018-12-25T12:53:24.366Z,22.20
2018-12-25T12:56:04.024Z,22.27
2018-12-25T12:58:44.068Z,25.40
2018-12-25T13:01:25.120Z,38.38
2018-12-25T13:04:05.416Z,24.85
2018-12-25T13:06:45.236Z,24.63
2018-12-25T13:09:25.016Z,27.42
2018-12-25T13:12:05.016Z,26.52
2018-12-25T13:14:45.005Z,28.83
2018-12-25T13:17:24.922Z,24.95
2018-12-25T13:20:04.912Z,30.85
2018-12-25T13:22:45.238Z,25.80
2018-12-25T13:25:25.094Z,23.98
2018-12-25T13:28:04.908Z,30.05
2018-12-25T13:30:45.107Z,31.75
2018-12-25T13:33:25.240Z,25.15
2018-12-25T13:36:05.195Z,27.20
2018-12-25T13:38:45.228Z,24.87
2018-12-25T13:41:25.694Z,26.23
2018-12-25T13:44:05.312Z,31.25
2018-12-25T13:46:51.529Z,32.10
2018-12-25T13:49:30.914Z,29.35
2018-12-25T13:52:11.293Z,30.60
2018-12-25T13:54:51.504Z,32.80
2018-12-25T13:57:31.836Z,28.62
2018-12-25T14:00:11.919Z,30.48
2018-12-25T14:02:52.191Z,37.28
2018-12-25T14:05:32.281Z,25.62
2018-12-25T14:08:12.160Z,32.50
2018-12-25T14:10:52.277Z,30.72
2018-12-25T14:13:32.568Z,27.32
2018-12-25T14:16:12.916Z,32.48
2018-12-25T14:18:52.941Z,31.00
2018-12-25T14:21:32.904Z,26.37
2018-12-25T14:24:12.622Z,32.23
2018-12-25T14:26:52.891Z,31.57
2018-12-25T14:29:32.896Z,34.25
2018-12-25T14:32:12.863Z,33.38
2018-12-25T14:34:52.983Z,33.05
2018-12-25T14:37:32.886Z,30.30
2018-12-25T14:40:13.125Z,34.92
2018-12-25T14:42:52.770Z,30.82
2018-12-25T14:45:32.844Z,30.12
2018-12-25T14:48:13.168Z,26.70
2018-12-25T14:50:53.401Z,24.87
2018-12-25T14:53:33.218Z,29.82
2018-12-25T14:56:13.215Z,29.45
2018-12-25T14:58:53.584Z,32.00
2018-12-25T15:01:33.639Z,24.90
2018-12-25T15:04:13.639Z,30.02
2018-12-25T15:06:54.127Z,30.97
2018-12-25T15:09:34.284Z,31.25
2018-12-25T15:12:14.098Z,29.77
2018-12-25T15:14:54.405Z,24.37
2018-12-25T15:17:34.335Z,25.72
2018-12-25T15:20:14.655Z,27.30
2018-12-25T15:22:54.531Z,28.38
2018-12-25T15:25:34.344Z,33.02
2018-12-25T15:28:14.575Z,25.00
2018-12-25T15:30:54.661Z,26.35
2018-12-25T15:33:34.684Z,29.20
2018-12-25T15:36:15.031Z,24.57
2018-12-25T15:38:54.824Z,25.05
2018-12-25T15:41:35.106Z,32.50
2018-12-25T15:44:15.203Z,25.68
2018-12-25T15:46:55.660Z,27.35
2018-12-25T15:49:35.953Z,26.85
2018-12-25T15:52:15.731Z,27.82
2018-12-25T15:54:55.779Z,23.92
2018-12-25T15:57:35.715Z,25.95
2018-12-25T16:00:15.990Z,19.12
2018-12-25T16:02:56.234Z,18.23
2018-12-25T16:05:36.387Z,18.52
2018-12-25T16:08:16.532Z,25.62
2018-12-25T16:10:56.754Z,21.93
2018-12-25T16:13:36.854Z,22.65
2018-12-25T16:16:16.854Z,22.58
2018-12-25T16:18:56.531Z,22.90
2018-12-25T16:21:36.455Z,23.25
2018-12-25T16:24:16.663Z,25.88
2018-12-25T16:26:56.688Z,26.20
2018-12-25T16:29:36.655Z,26.50
2018-12-25T16:32:16.747Z,27.30
2018-12-25T16:34:56.853Z,28.50
2018-12-25T16:37:36.778Z,24.32
2018-12-25T16:40:17.277Z,28.00
2018-12-25T16:42:57.072Z,25.62
2018-12-25T16:45:36.942Z,32.70
2018-12-25T16:48:17.278Z,35.15
2018-12-25T16:50:57.379Z,32.30
2018-12-25T16:53:37.672Z,31.68
2018-12-25T16:56:17.840Z,35.88
2018-12-25T17:05:17.818Z,26.02
2018-12-25T17:07:57.690Z,32.83
2018-12-25T17:10:37.836Z,31.85
2018-12-25T17:13:18.226Z,36.90
2018-12-25T17:15:58.508Z,38.08
2018-12-25T17:18:38.384Z,31.85
2018-12-25T17:21:18.413Z,37.63
2018-12-25T17:24:02.299Z,31.37
2018-12-25T17:26:40.687Z,31.00
2018-12-25T17:29:21.132Z,24.95
2018-12-25T17:32:01.338Z,26.45
2018-12-25T17:34:41.405Z,23.45
2018-12-25T17:37:20.912Z,29.48
2018-12-25T17:40:01.064Z,30.35
2018-12-25T17:42:41.362Z,35.28
2018-12-25T17:45:21.300Z,33.63
2018-12-25T17:48:01.412Z,27.85
2018-12-25T17:50:42.079Z,30.50
2018-12-25T17:53:22.237Z,33.73
2018-12-25T17:56:02.112Z,24.95
2018-12-25T17:58:42.236Z,26.70
2018-12-25T18:01:22.396Z,31.68
2018-12-25T18:04:02.406Z,33.63
2018-12-25T18:06:42.720Z,30.77
2018-12-25T18:09:22.613Z,30.75
2018-12-25T18:12:02.734Z,31.82
2018-12-25T18:14:43.148Z,34.38
2018-12-25T18:17:23.326Z,37.50
2018-12-25T18:20:03.851Z,36.25
2018-12-25T18:22:43.925Z,34.25
2018-12-25T18:25:24.088Z,34.33
2018-12-25T18:28:03.982Z,34.78
2018-12-25T18:30:44.675Z,41.42
2018-12-25T18:33:24.278Z,39.30
2018-12-25T18:36:04.364Z,45.08
2018-12-25T18:38:44.498Z,45.25
2018-12-25T18:41:24.852Z,37.30
2018-12-25T18:44:05.488Z,36.77
2018-12-25T18:46:46.044Z,35.00
2018-12-25T18:49:26.188Z,30.08
2018-12-25T18:52:05.968Z,27.10
2018-12-25T18:54:46.082Z,30.62
2018-12-25T18:57:26.254Z,34.55
2018-12-25T19:00:06.487Z,31.55
2018-12-25T19:02:46.528Z,37.90
2018-12-25T19:05:26.658Z,39.92
2018-12-25T19:08:06.855Z,35.43
2018-12-25T19:10:46.838Z,37.40
2018-12-25T19:13:27.130Z,33.60
2018-12-25T19:16:07.158Z,45.73
2018-12-25T19:18:47.503Z,34.83
2018-12-25T19:21:27.579Z,32.78
2018-12-25T19:24:07.549Z,34.95
2018-12-25T19:26:47.540Z,35.52
2018-12-25T19:29:27.876Z,33.38
2018-12-25T19:32:08.138Z,30.75
2018-12-25T19:34:48.194Z,31.07
2018-12-25T19:37:28.222Z,36.98
2018-12-25T19:40:08.601Z,40.52
2018-12-25T19:42:48.804Z,51.35
2018-12-25T19:45:29.154Z,38.13
2018-12-25T19:48:09.124Z,39.53
2018-12-25T19:50:48.926Z,47.80
2018-12-25T19:53:29.292Z,32.10
2018-12-25T19:56:09.114Z,44.48
2018-12-25T19:58:49.365Z,43.42
2018-12-25T20:01:29.108Z,41.18
2018-12-25T20:04:09.064Z,50.70
2018-12-25T20:06:49.125Z,56.10
2018-12-25T20:09:29.480Z,53.23
2018-12-25T20:12:09.203Z,47.43
2018-12-25T20:14:49.897Z,43.40
2018-12-25T20:17:30.419Z,46.50
2018-12-25T20:20:10.348Z,42.53
2018-12-25T20:22:50.440Z,36.93
2018-12-25T20:25:30.072Z,42.23
2018-12-25T20:28:10.171Z,46.48
2018-12-25T20:30:50.253Z,48.87
2018-12-25T20:33:30.278Z,67.67
2018-12-25T20:36:10.477Z,54.93
2018-12-25T20:38:50.548Z,49.15
2018-12-25T20:41:30.275Z,50.70
2018-12-25T20:44:10.236Z,52.58
2018-12-25T20:46:50.336Z,54.70
2018-12-25T20:49:30.557Z,58.70
2018-12-25T20:52:10.540Z,63.38
2018-12-25T20:54:50.366Z,53.98
2018-12-25T20:57:30.492Z,54.93
2018-12-25T21:00:10.642Z,53.70
2018-12-25T21:02:50.551Z,54.08
2018-12-25T21:05:31.067Z,55.60
2018-12-25T21:08:11.051Z,59.83
2018-12-25T21:10:50.872Z,50.43
2018-12-25T21:13:30.888Z,38.40
2018-12-25T21:16:11.351Z,39.80
2018-12-25T21:18:50.979Z,39.98
2018-12-25T21:21:31.444Z,49.20
2018-12-25T21:24:11.266Z,39.90
2018-12-25T21:26:51.379Z,44.75
2018-12-25T21:29:31.308Z,46.08
2018-12-25T21:32:11.126Z,42.83
2018-12-25T21:34:51.300Z,42.70
2018-12-25T21:37:31.582Z,45.38
2018-12-25T21:40:11.282Z,47.83
2018-12-25T21:42:51.660Z,50.08
2018-12-25T21:45:31.627Z,46.10
2018-12-25T21:48:09.941Z,48.50
2018-12-25T21:50:57.610Z,48.45
2018-12-25T21:53:37.307Z,41.23
2018-12-25T21:56:17.706Z,39.58
2018-12-25T21:58:57.412Z,41.98
2018-12-25T22:01:37.570Z,36.75
2018-12-25T22:04:17.832Z,32.42
2018-12-25T22:06:57.899Z,41.50
2018-12-25T22:09:37.948Z,32.93
2018-12-25T22:12:18.068Z,37.75
2018-12-25T22:14:58.592Z,38.63
2018-12-25T22:17:38.682Z,36.83
2018-12-25T22:20:19.328Z,29.50
2018-12-25T22:22:59.485Z,27.27
2018-12-25T22:25:39.783Z,28.70
2018-12-25T22:28:19.673Z,32.93
2018-12-25T22:31:00.424Z,36.85
2018-12-25T22:33:40.306Z,35.90
2018-12-25T22:36:20.651Z,30.80
2018-12-25T22:39:00.877Z,31.25
2018-12-25T22:41:40.770Z,33.88
2018-12-25T22:44:21.048Z,32.78
2018-12-25T22:47:01.118Z,40.43
2018-12-25T22:49:41.247Z,33.10
2018-12-25T22:52:21.498Z,28.45
2018-12-25T22:55:01.394Z,30.57
2018-12-25T22:57:41.515Z,31.37
2018-12-25T23:00:21.363Z,34.75
2018-12-25T23:03:03.410Z,32.05
2018-12-25T23:05:43.643Z,29.70
2018-12-25T23:08:24.492Z,29.45
2018-12-25T23:11:04.083Z,26.75
2018-12-25T23:13:44.298Z,24.82
2018-12-25T23:16:24.181Z,29.77
2018-12-25T23:19:04.394Z,27.00
2018-12-25T23:21:44.224Z,26.02
2018-12-25T23:24:24.572Z,21.70
2018-12-25T23:27:04.835Z,26.27
2018-12-25T23:29:44.680Z,28.10
2018-12-25T23:32:24.769Z,28.95
2018-12-25T23:35:05.195Z,26.75
2018-12-25T23:37:44.908Z,30.82
2018-12-25T23:40:25.114Z,24.77
2018-12-25T23:43:05.392Z,31.15
2018-12-25T23:45:45.236Z,28.90
2018-12-25T23:48:25.168Z,31.97
2018-12-25T23:51:05.437Z,30.23
2018-12-25T23:53:45.486Z,28.20
2018-12-25T23:56:25.716Z,29.52
2018-12-25T23:59:05.659Z,28.40
